Time;durP1;ratioP1;P1;durP2;ratioP2;P2;SDS_P1;SDS_P2;PMS_P1;PMS_P2;Temp;Humidity;BMP_temperature;BMP_pressure;BME280_temperature;BME280_humidity;BME280_pressure;Samples;Min_cycle;Max_cycle;Signal;HPM_P1;HPM_P2
2021/01/05 00:01:03;;;;;;;;;;;;;;;19.35;69.16;99935.25;5058135;28;1352;-58
2021/01/05 00:03:28;;;;;;;;;;;;;;;19.35;69.00;99925.38;5075859;28;924;-58
2021/01/05 00:05:53;;;;;;;;;;;;;;;19.31;69.00;99924.00;5075848;28;785;-58
2021/01/05 00:08:19;;;;;;;;;;;;;;;19.32;69.25;99920.34;5075086;28;1332;-62
2021/01/05 00:10:44;;;;;;;;;;;;;;;19.27;68.81;99912.75;5075315;28;1251;-62
2021/01/05 00:13:09;;;;;;;;;;;;;;;19.25;68.92;99903.19;5075591;28;1906;-63
2021/01/05 00:15:35;;;;;;;;;;;;;;;19.24;68.79;99901.53;5074466;28;1601;-58
2021/01/05 00:18:00;;;;;;;;;;;;;;;19.19;69.14;99899.31;5075421;28;793;-58
2021/01/05 00:20:29;;;;;;;;;;;;;;;19.16;69.34;99896.97;5075491;28;734;-58
2021/01/05 00:22:54;;;;;;;;;;;;;;;19.14;69.24;99914.19;5075276;28;1375;-58
2021/01/05 00:25:20;;;;;;;;;;;;;;;19.11;69.35;99909.16;5057724;28;1266;-62
2021/01/05 00:27:46;;;;;;;;;;;;;;;19.05;69.36;99935.56;5075401;28;769;-62
2021/01/05 00:30:13;;;;;;;;;;;;;;;19.05;69.38;99922.16;5075314;28;1392;-62
2021/01/05 00:32:42;;;;;;;;;;;;;;;19.03;69.28;99940.22;5075022;28;1889;-62
2021/01/05 00:35:08;;;;;;;;;;;;;;;19.02;69.28;99932.34;5075237;28;812;-58
2021/01/05 00:37:33;;;;;;;;;;;;;;;19.00;69.33;99935.19;5057500;28;1265;-63
2021/01/05 00:39:59;;;;;;;;;;;;;;;19.02;69.22;99951.09;5074823;28;1380;-58
2021/01/05 00:42:24;;;;;;;;;;;;;;;19.00;69.32;99945.91;5075242;28;773;-58
2021/01/05 00:44:50;;;;;;;;;;;;;;;18.96;69.21;99947.22;5074563;28;1279;-63
2021/01/05 00:47:15;;;;;;;;;;;;;;;18.94;69.22;99940.31;5075229;28;805;-61
2021/01/05 00:49:40;;;;;;;;;;;;;;;18.95;69.36;99953.56;5057087;28;1444;-58
2021/01/05 00:52:06;;;;;;;;;;;;;;;18.95;69.19;99939.34;5075075;28;1944;-58
2021/01/05 00:54:31;;;;;;;;;;;;;;;18.93;69.45;99947.53;5075237;28;856;-58
2021/01/05 00:57:04;;;;;;;;;;;;;;;18.91;69.25;99937.97;5075057;28;825;-58
2021/01/05 00:59:30;;;;;;;;;;;;;;;18.91;69.13;99933.44;5073499;28;1437;-58
2021/01/05 01:01:56;;;;;;;;;;;;;;;18.90;69.18;99947.00;5074971;28;1439;-62
2021/01/05 01:04:21;;;;;;;;;;;;;;;18.89;69.12;99935.44;5074966;28;919;-58
2021/01/05 01:06:47;;;;;;;;;;;;;;;18.96;68.93;99960.63;5075062;28;812;-58
2021/01/05 01:09:12;;;;;;;;;;;;;;;18.96;68.77;99965.97;5074650;28;1466;-58
2021/01/05 01:11:38;;;;;;;;;;;;;;;18.96;68.77;99974.03;5074510;28;1223;-61
2021/01/05 01:14:04;;;;;;;;;;;;;;;18.96;68.47;99968.66;5074867;28;1979;-62
2021/01/05 01:16:29;;;;;;;;;;;;;;;19.01;68.35;99979.75;5074970;28;780;-62
2021/01/05 01:18:55;;;;;;;;;;;;;;;18.97;68.38;99994.44;5074452;28;1498;-62
2021/01/05 01:21:20;;;;;;;;;;;;;;;18.98;68.17;100003.31;5074748;28;1324;-58
2021/01/05 01:23:45;;;;;;;;;;;;;;;18.95;69.18;99982.22;5074888;28;794;-58
2021/01/05 01:26:11;;;;;;;;;;;;;;;18.92;69.56;99978.00;5074332;28;1376;-58
2021/01/05 01:28:37;;;;;;;;;;;;;;;18.93;69.59;99978.84;5074399;28;1402;-62
2021/01/05 01:31:02;;;;;;;;;;;;;;;18.89;69.79;99956.88;5056905;28;824;-58
2021/01/05 01:33:28;;;;;;;;;;;;;;;18.92;69.38;99986.03;5074821;28;1885;-62
2021/01/05 01:35:53;;;;;;;;;;;;;;;18.85;69.35;99979.59;5056408;28;1438;-58
2021/01/05 01:38:18;;;;;;;;;;;;;;;18.82;69.70;99975.41;5072723;28;1380;-62
2021/01/05 01:40:44;;;;;;;;;;;;;;;18.82;69.74;99961.16;5074317;28;1293;-58
2021/01/05 01:43:10;;;;;;;;;;;;;;;18.81;69.54;99980.91;5073980;28;1202;-58
2021/01/05 01:45:36;;;;;;;;;;;;;;;18.77;69.43;99979.50;5073884;28;1337;-58
2021/01/05 01:48:02;;;;;;;;;;;;;;;18.78;69.55;99975.81;5073877;28;1330;-62
2021/01/05 01:50:29;;;;;;;;;;;;;;;18.78;69.33;99965.09;5074631;28;749;-62
2021/01/05 01:53:10;;;;;;;;;;;;;;;18.75;69.50;99960.91;5074191;28;1881;-58
2021/01/05 01:55:38;;;;;;;;;;;;;;;18.78;69.52;99965.09;5074778;28;804;-58
2021/01/05 01:58:04;;;;;;;;;;;;;;;18.74;69.38;99979.78;5056440;28;1376;-58
2021/01/05 02:00:42;;;;;;;;;;;;;;;18.75;69.51;99952.88;5056661;28;1430;-62
2021/01/05 02:03:07;;;;;;;;;;;;;;;18.77;69.40;99968.78;5073742;28;821;-62
2021/01/05 02:05:39;;;;;;;;;;;;;;;18.74;69.34;99963.72;5074552;28;750;-62
2021/01/05 02:08:24;;;;;;;;;;;;;;;18.76;69.29;99969.75;5073665;28;1618;-61
2021/01/05 02:10:50;;;;;;;;;;;;;;;18.72;69.18;99968.38;5075353;28;1089;-58
2021/01/05 02:13:24;;;;;;;;;;;;;;;18.73;69.39;99970.09;5060037;28;1905;-58
2021/01/05 02:16:28;;;;;;;;;;;;;;;18.71;69.31;99975.59;5077602;28;1563;-58
2021/01/05 02:18:55;;;;;;;;;;;;;;;18.74;69.15;99969.09;5016537;28;1355;-61
2021/01/05 02:21:25;;;;;;;;;;;;;;;18.78;69.08;99973.13;5016488;28;765;-58
2021/01/05 02:23:53;;;;;;;;;;;;;;;18.79;68.62;99974.84;5011488;28;1157;-58
2021/01/05 02:26:45;;;;;;;;;;;;;;;18.85;68.67;99968.88;5040052;28;1187;-58
2021/01/05 02:29:17;;;;;;;;;;;;;;;18.88;68.67;99960.56;5042002;28;1133;-58
2021/01/05 02:31:43;;;;;;;;;;;;;;;18.86;68.88;99979.47;5059688;28;1431;-58
2021/01/05 02:34:08;;;;;;;;;;;;;;;18.88;69.18;99960.56;5076695;28;1980;-62
2021/01/05 02:36:36;;;;;;;;;;;;;;;18.93;69.10;99968.97;5076689;28;1245;-62
2021/01/05 02:39:22;;;;;;;;;;;;;;;18.99;68.96;99980.91;5077246;28;1604;-62
2021/01/05 02:42:04;;;;;;;;;;;;;;;18.98;68.96;99979.19;5055849;28;1341;-62
2021/01/05 02:44:34;;;;;;;;;;;;;;;19.00;69.12;99964.69;5069924;28;1297;-62
2021/01/05 02:47:14;;;;;;;;;;;;;;;18.94;69.76;99977.81;5056775;28;1359;-62
2021/01/05 02:49:43;;;;;;;;;;;;;;;18.87;69.46;99967.72;5059156;28;1245;-62
2021/01/05 02:52:12;;;;;;;;;;;;;;;18.87;69.94;99969.56;5073169;28;1953;-62
2021/01/05 02:54:55;;;;;;;;;;;;;;;18.88;69.96;99965.91;5077137;28;1368;-60
2021/01/05 02:57:21;;;;;;;;;;;;;;;18.88;69.89;99960.56;5055961;28;1263;-57
2021/01/05 02:59:58;;;;;;;;;;;;;;;18.88;70.24;99965.91;5057007;28;734;-60
2021/01/05 03:02:42;;;;;;;;;;;;;;;18.84;70.70;99961.84;5056600;23;2146;-48
2021/01/05 03:05:09;;;;;;;;;;;;;;;18.82;70.76;99982.56;5044622;28;1391;-47
2021/01/05 03:07:35;;;;;;;;;;;;;;;18.76;70.94;99967.09;5055847;28;821;-47
2021/01/05 03:13:01;;;;;;;;;;;;;;;18.73;70.22;99978.13;5055234;28;1886;-57
2021/01/05 03:15:42;;;;;;;;;;;;;;;18.73;70.00;99995.03;5055775;28;1352;-57
2021/01/05 03:18:07;;;;;;;;;;;;;;;18.72;70.57;99989.81;5055747;28;1492;-57
2021/01/05 03:20:35;;;;;;;;;;;;;;;18.76;70.27;100002.78;5055814;28;1498;-62
2021/01/05 03:23:03;;;;;;;;;;;;;;;18.78;70.54;100002.59;5054742;28;1494;-62
2021/01/05 03:25:30;;;;;;;;;;;;;;;18.76;70.35;100023.34;5055694;28;1407;-61
2021/01/05 03:27:58;;;;;;;;;;;;;;;18.71;70.56;100017.63;5055981;28;1510;-62
2021/01/05 03:30:23;;;;;;;;;;;;;;;18.70;70.45;100022.09;5055543;28;1478;-57
2021/01/05 03:32:49;;;;;;;;;;;;;;;18.72;70.27;100030.00;5055579;28;1897;-61
2021/01/05 03:35:14;;;;;;;;;;;;;;;18.76;70.19;100042.94;5055429;28;1415;-61
2021/01/05 03:37:40;;;;;;;;;;;;;;;18.79;69.94;100041.78;5054078;28;1504;-61
2021/01/05 03:40:09;;;;;;;;;;;;;;;18.79;69.99;100052.50;5054371;28;1286;-57
2021/01/05 03:42:35;;;;;;;;;;;;;;;18.83;69.79;100043.22;5054604;28;1269;-57
2021/01/05 03:45:00;;;;;;;;;;;;;;;18.80;69.77;100051.53;5054459;28;1463;-62
2021/01/05 03:47:25;;;;;;;;;;;;;;;18.83;69.65;100049.41;5054777;28;1519;-57
2021/01/05 03:49:51;;;;;;;;;;;;;;;18.81;69.73;100051.38;5055409;28;1506;-61
2021/01/05 03:52:16;;;;;;;;;;;;;;;18.77;69.97;100065.22;5054946;28;1874;-61
2021/01/05 03:54:42;;;;;;;;;;;;;;;18.71;70.12;100060.47;5055265;28;1494;-57
2021/01/05 03:57:07;;;;;;;;;;;;;;;18.69;70.05;100058.75;5054876;28;1553;-61
2021/01/05 03:59:32;;;;;;;;;;;;;;;18.68;70.45;100067.81;5055106;28;1254;-61
2021/01/05 04:01:58;;;;;;;;;;;;;;;18.68;70.47;100070.47;5054528;28;1499;-57
2021/01/05 04:04:23;;;;;;;;;;;;;;;18.70;70.22;100064.94;5054474;28;1495;-61
2021/01/05 04:06:49;;;;;;;;;;;;;;;18.68;70.56;100078.53;5054781;28;1198;-57
2021/01/05 04:09:15;;;;;;;;;;;;;;;18.67;71.20;100087.53;5054228;28;1389;-61
2021/01/05 04:11:40;;;;;;;;;;;;;;;18.72;70.17;100088.91;5054306;28;1393;-57
2021/01/05 04:14:06;;;;;;;;;;;;;;;18.72;70.28;100094.28;5052354;28;1910;-57
2021/01/05 04:16:32;;;;;;;;;;;;;;;18.73;70.34;100098.66;5049588;28;1370;-57
2021/01/05 04:18:58;;;;;;;;;;;;;;;18.61;70.47;100093.50;5040149;28;1467;-62
2021/01/05 04:21:23;;;;;;;;;;;;;;;18.50;70.62;100104.38;5044936;28;1492;-61
2021/01/05 04:23:48;;;;;;;;;;;;;;;18.50;70.56;100107.06;5039954;28;1544;-57
2021/01/05 04:26:14;;;;;;;;;;;;;;;18.47;70.43;100123.44;5047064;28;1590;-62
2021/01/05 04:28:39;;;;;;;;;;;;;;;18.47;69.76;100116.25;5048024;28;1237;-62
2021/01/05 04:31:05;;;;;;;;;;;;;;;18.46;69.98;100153.88;5047625;28;1320;-62
2021/01/05 04:33:30;;;;;;;;;;;;;;;18.40;69.86;100143.75;5054408;28;1878;-57
2021/01/05 04:35:55;;;;;;;;;;;;;;;18.38;70.20;100143.91;5054408;28;1515;-59
2021/01/05 04:38:20;;;;;;;;;;;;;;;18.42;70.06;100142.63;5049877;28;1439;-58
2021/01/05 04:40:47;;;;;;;;;;;;;;;18.39;70.04;100150.94;5037361;28;1548;-62
2021/01/05 04:43:19;;;;;;;;;;;;;;;18.43;69.82;100172.91;5050532;28;1639;-58
2021/01/05 04:45:47;;;;;;;;;;;;;;;18.36;70.26;100158.41;5049447;28;1483;-63
2021/01/05 04:48:35;;;;;;;;;;;;;;;18.37;69.67;100171.66;5053850;28;1499;-63
2021/01/05 04:51:02;;;;;;;;;;;;;;;18.37;69.92;100173.50;5050703;28;1481;-59
2021/01/05 04:53:34;;;;;;;;;;;;;;;18.44;68.80;100179.94;5053901;28;1935;-62
2021/01/05 04:56:10;;;;;;;;;;;;;;;18.44;68.46;100166.56;5054125;28;1450;-63
2021/01/05 04:58:38;;;;;;;;;;;;;;;18.49;68.73;100175.00;5048765;28;1464;-59
2021/01/05 05:01:07;;;;;;;;;;;;;;;18.45;68.53;100184.31;5050905;28;1482;-63
2021/01/05 05:03:42;;;;;;;;;;;;;;;18.47;68.49;100193.88;5046731;28;1511;-58
2021/01/05 05:06:10;;;;;;;;;;;;;;;18.50;68.30;100198.09;5053797;28;1531;-58
2021/01/05 05:08:54;;;;;;;;;;;;;;;18.46;68.43;100191.34;5052771;28;1392;-63
2021/01/05 05:11:21;;;;;;;;;;;;;;;18.41;68.09;100197.16;5052146;28;1476;-58
2021/01/05 05:14:07;;;;;;;;;;;;;;;18.44;68.57;100199.56;5053321;28;1961;-64
2021/01/05 05:16:52;;;;;;;;;;;;;;;18.48;68.52;100202.75;5052474;28;1523;-63
2021/01/05 05:19:33;;;;;;;;;;;;;;;18.49;68.58;100217.84;5053631;28;1486;-64
2021/01/05 05:22:07;;;;;;;;;;;;;;;18.49;68.31;100212.50;5054032;28;1502;-64
2021/01/05 05:24:42;;;;;;;;;;;;;;;18.45;68.67;100216.44;5046640;28;1341;-63
2021/01/05 05:27:13;;;;;;;;;;;;;;;18.48;68.39;100232.19;5053209;28;1539;-63
2021/01/05 05:29:42;;;;;;;;;;;;;;;18.46;68.76;100223.47;5053267;28;1294;-63
2021/01/05 05:32:24;;;;;;;;;;;;;;;18.44;68.59;100236.16;5053119;28;1890;-63
2021/01/05 05:35:16;;;;;;;;;;;;;;;18.43;69.16;100224.63;5052190;28;1267;-63
2021/01/05 05:37:41;;;;;;;;;;;;;;;18.41;69.95;100231.94;5050898;28;1290;-59
2021/01/05 05:40:10;;;;;;;;;;;;;;;18.44;69.57;100236.16;5053284;28;1322;-63
2021/01/05 05:42:50;;;;;;;;;;;;;;;18.41;69.64;100249.84;5053274;28;1330;-59
2021/01/05 05:45:20;;;;;;;;;;;;;;;18.42;69.61;100254.19;5053661;28;1326;-58
2021/01/05 05:48:05;;;;;;;;;;;;;;;18.41;69.69;100249.84;5054579;28;1352;-58
2021/01/05 05:50:50;;;;;;;;;;;;;;;18.41;69.75;100258.72;5057308;28;1271;-59
2021/01/05 05:53:22;;;;;;;;;;;;;;;18.38;69.36;100258.16;5035240;28;1954;-64
2021/01/05 05:56:08;;;;;;;;;;;;;;;18.38;69.51;100266.19;5057056;28;1619;-63
2021/01/05 05:58:39;;;;;;;;;;;;;;;18.37;69.65;100267.19;5053052;28;1199;-59
2021/01/05 06:01:08;;;;;;;;;;;;;;;18.37;69.30;100261.84;5051197;28;1316;-58
2021/01/05 06:03:33;;;;;;;;;;;;;;;18.37;69.57;100273.38;5056240;28;1519;-63
2021/01/05 06:05:59;;;;;;;;;;;;;;;18.36;69.61;100277.03;5056922;28;1310;-63
2021/01/05 06:08:24;;;;;;;;;;;;;;;18.35;69.52;100279.88;5056746;28;1538;-59
2021/01/05 06:10:50;;;;;;;;;;;;;;;18.36;69.62;100276.19;5056659;28;1302;-59
2021/01/05 06:13:16;;;;;;;;;;;;;;;18.38;69.48;100279.56;5056034;28;1909;-63
2021/01/05 06:15:41;;;;;;;;;;;;;;;18.42;69.10;100286.31;5056709;28;1243;-63
2021/01/05 06:18:08;;;;;;;;;;;;;;;18.43;69.27;100285.34;5056770;28;1266;-63
2021/01/05 06:20:33;;;;;;;;;;;;;;;18.45;69.02;100284.22;5056661;28;1337;-64
2021/01/05 06:22:59;;;;;;;;;;;;;;;18.47;68.67;100289.44;5056607;28;1557;-59
2021/01/05 06:25:24;;;;;;;;;;;;;;;18.48;69.00;100299.13;5056271;28;1495;-58
2021/01/05 06:27:50;;;;;;;;;;;;;;;18.47;69.01;100305.50;5055421;28;1337;-64
2021/01/05 06:30:16;;;;;;;;;;;;;;;18.46;69.22;100301.13;5054902;28;1471;-59
2021/01/05 06:32:41;;;;;;;;;;;;;;;18.43;69.05;100304.09;5055570;28;1886;-59
2021/01/05 06:35:07;;;;;;;;;;;;;;;18.43;69.10;100314.81;5052786;28;1226;-58
2021/01/05 06:37:33;;;;;;;;;;;;;;;18.41;69.11;100311.44;5055623;28;1329;-63
2021/01/05 06:39:58;;;;;;;;;;;;;;;18.45;68.90;100312.84;5056345;28;1310;-64
2021/01/05 06:42:23;;;;;;;;;;;;;;;18.38;69.15;100311.69;5055761;28;1487;-58
2021/01/05 06:44:49;;;;;;;;;;;;;;;18.36;69.06;100316.34;5056115;28;1393;-62
2021/01/05 06:47:14;;;;;;;;;;;;;;;18.36;68.75;100330.56;5055816;28;1208;-58
2021/01/05 06:49:40;;;;;;;;;;;;;;;18.37;69.12;100329.59;5056028;28;1231;-59
2021/01/05 06:52:06;;;;;;;;;;;;;;;18.39;69.04;100330.31;5055516;28;1890;-59
2021/01/05 06:54:31;;;;;;;;;;;;;;;18.37;68.69;100339.47;5055893;28;1243;-59
2021/01/05 06:56:57;;;;;;;;;;;;;;;18.33;69.91;100341.59;5054264;28;1468;-58
2021/01/05 06:59:23;;;;;;;;;;;;;;;18.37;70.69;100342.16;5055899;28;1487;-61
2021/01/05 07:01:52;;;;;;;;;;;;;;;18.48;70.27;100345.53;5056349;28;1388;-60
2021/01/05 07:04:18;;;;;;;;;;;;;;;18.48;70.66;100339.31;5056285;28;1479;-60
2021/01/05 07:06:44;;;;;;;;;;;;;;;18.47;70.70;100340.31;5055557;28;1438;-58
2021/01/05 07:09:09;;;;;;;;;;;;;;;18.54;70.48;100349.44;5055549;28;1545;-61
2021/01/05 07:11:35;;;;;;;;;;;;;;;18.52;70.75;100340.72;5056064;28;1491;-65
2021/01/05 07:14:00;;;;;;;;;;;;;;;18.47;70.65;100359.03;5056116;28;1914;-62
2021/01/05 07:16:25;;;;;;;;;;;;;;;18.43;71.07;100352.28;5055889;28;1321;-58
2021/01/05 07:18:51;;;;;;;;;;;;;;;18.38;71.38;100338.47;5055542;28;1159;-63
2021/01/05 07:21:16;;;;;;;;;;;;;;;18.45;70.97;100353.00;5054966;28;1326;-59
2021/01/05 07:23:41;;;;;;;;;;;;;;;18.40;70.70;100355.22;5056030;28;1502;-64
2021/01/05 07:26:07;;;;;;;;;;;;;;;18.37;71.37;100353.69;5055153;28;1585;-64
2021/01/05 07:28:32;;;;;;;;;;;;;;;18.33;71.12;100364.84;5055420;28;1345;-64
2021/01/05 07:30:57;;;;;;;;;;;;;;;18.36;71.08;100356.50;5055110;28;1480;-61
2021/01/05 07:33:23;;;;;;;;;;;;;;;18.41;70.58;100365.81;5055505;28;1951;-56
2021/01/05 07:35:48;;;;;;;;;;;;;;;18.56;70.20;100366.25;5055426;28;1478;-65
2021/01/05 07:38:14;;;;;;;;;;;;;;;18.81;69.49;100361.28;5055107;28;1451;-59
2021/01/05 07:40:39;;;;;;;;;;;;;;;19.05;68.79;100369.69;5051324;28;1392;-61
2021/01/05 07:43:04;;;;;;;;;;;;;;;19.13;68.19;100365.44;5051397;28;1313;-60
2021/01/05 07:45:30;;;;;;;;;;;;;;;19.25;68.11;100350.84;5039593;28;1450;-60
2021/01/05 07:47:55;;;;;;;;;;;;;;;19.46;67.34;100362.19;5048381;28;1174;-60
2021/01/05 07:50:22;;;;;;;;;;;;;;;20.05;65.94;100356.50;5050187;28;1234;-59
2021/01/05 07:52:48;;;;;;;;;;;;;;;20.19;65.31;100380.16;5051685;28;1893;-60
2021/01/05 07:55:18;;;;;;;;;;;;;;;20.59;63.93;100364.56;5053329;28;1261;-58
2021/01/05 07:57:43;;;;;;;;;;;;;;;20.73;63.84;100368.53;5053316;28;1199;-59
2021/01/05 08:00:11;;;;;;;;;;;;;;;20.65;63.71;100367.50;5054632;28;1191;-58
2021/01/05 08:02:37;;;;;;;;;;;;;;;20.76;64.38;100379.00;5054153;28;1348;-59
2021/01/05 08:05:02;;;;;;;;;;;;;;;20.73;64.54;100390.03;5053265;28;1348;-59
2021/01/05 08:07:28;;;;;;;;;;;;;;;20.62;65.22;100396.50;5050818;28;1343;-58
2021/01/05 08:09:53;;;;;;;;;;;;;;;20.59;64.82;100388.75;5054019;28;1182;-62
2021/01/05 08:12:19;;;;;;;;;;;;;;;20.65;64.68;100391.69;5053643;28;2001;-59
2021/01/05 08:14:45;;;;;;;;;;;;;;;20.60;64.08;100388.59;5054574;28;1402;-62
2021/01/05 08:17:10;;;;;;;;;;;;;;;20.60;64.63;100399.34;5048700;28;1384;-59
2021/01/05 08:19:36;;;;;;;;;;;;;;;20.49;65.18;100391.50;5052378;28;1353;-59
2021/01/05 08:22:02;;;;;;;;;;;;;;;20.41;65.64;100396.78;5047620;28;1400;-60
2021/01/05 08:24:28;;;;;;;;;;;;;;;20.33;65.49;100386.81;5041963;28;1523;-59
2021/01/05 08:26:53;;;;;;;;;;;;;;;20.18;65.45;100383.84;5052604;28;1376;-59
2021/01/05 08:29:19;;;;;;;;;;;;;;;20.15;65.79;100394.03;5052776;28;1567;-59
2021/01/05 08:31:46;;;;;;;;;;;;;;;20.11;66.16;100390.78;5051486;28;1408;-62
2021/01/05 08:34:12;;;;;;;;;;;;;;;20.04;66.09;100403.16;5053064;28;1941;-60
2021/01/05 08:36:37;;;;;;;;;;;;;;;19.96;66.24;100385.13;5054055;28;1236;-60
2021/01/05 08:39:04;;;;;;;;;;;;;;;19.90;66.52;100395.63;5052241;28;1336;-60
2021/01/05 08:41:29;;;;;;;;;;;;;;;19.90;67.13;100400.97;5052523;28;1735;-60
2021/01/05 08:43:55;;;;;;;;;;;;;;;19.82;67.03;100404.41;5052095;28;1399;-59
2021/01/05 08:46:24;;;;;;;;;;;;;;;19.78;67.15;100405.72;5051383;28;1360;-61
2021/01/05 08:48:50;;;;;;;;;;;;;;;19.73;67.39;100416.88;5054448;28;1297;-59
2021/01/05 08:51:19;;;;;;;;;;;;;;;19.72;67.19;100420.56;5053213;28;1223;-62
2021/01/05 08:53:48;;;;;;;;;;;;;;;19.73;67.13;100422.22;5051595;28;1891;-63
2021/01/05 08:56:17;;;;;;;;;;;;;;;19.65;67.01;100404.16;5053228;28;1725;-59
2021/01/05 08:58:43;;;;;;;;;;;;;;;19.68;67.63;100419.97;5053185;28;1173;-61
2021/01/05 09:01:09;;;;;;;;;;;;;;;19.62;67.74;100425.09;5051875;28;809;-60
2021/01/05 09:03:34;;;;;;;;;;;;;;;19.60;67.43;100400.25;5053143;28;1463;-63
2021/01/05 09:06:00;;;;;;;;;;;;;;;19.62;68.01;100417.03;5046429;28;1358;-60
2021/01/05 09:08:30;;;;;;;;;;;;;;;19.62;67.80;100420.56;5052904;28;1376;-60
2021/01/05 09:10:55;;;;;;;;;;;;;;;19.67;68.04;100422.78;5059746;28;1129;-62
2021/01/05 09:13:24;;;;;;;;;;;;;;;19.66;67.90;100415.75;5070041;28;2013;-60
2021/01/05 09:15:50;;;;;;;;;;;;;;;19.68;67.86;100421.81;5055550;28;1388;-61
2021/01/05 09:18:16;;;;;;;;;;;;;;;19.73;67.42;100408.81;5072270;28;1479;-59
2021/01/05 09:20:41;;;;;;;;;;;;;;;19.70;67.50;100405.59;5070182;28;1321;-72
2021/01/05 09:23:06;;;;;;;;;;;;;;;19.66;67.86;100415.75;5073329;28;1384;-62
2021/01/05 09:25:32;;;;;;;;;;;;;;;19.69;67.36;100428.84;5073303;28;1454;-60
2021/01/05 09:27:57;;;;;;;;;;;;;;;19.69;68.27;100410.06;5069652;28;1352;-61
2021/01/05 09:30:23;;;;;;;;;;;;;;;19.81;68.51;100418.81;5072923;28;1523;-59
2021/01/05 09:32:48;;;;;;;;;;;;;;;19.91;68.18;100419.59;5072131;28;2028;-64
2021/01/05 09:35:13;;;;;;;;;;;;;;;19.92;68.54;100420.47;5070890;28;1340;-63
2021/01/05 09:37:40;;;;;;;;;;;;;;;19.82;68.41;100413.28;5073312;28;1388;-62
2021/01/05 09:40:07;;;;;;;;;;;;;;;19.80;68.25;100401.88;5061360;28;1360;-64
2021/01/05 09:42:33;;;;;;;;;;;;;;;19.86;68.72;100403.13;5070471;28;1317;-75
2021/01/05 09:44:58;;;;;;;;;;;;;;;19.88;68.43;100405.66;5054697;28;1369;-60
2021/01/05 09:47:24;;;;;;;;;;;;;;;19.91;68.55;100399.97;5071472;28;1443;-72
2021/01/05 09:49:49;;;;;;;;;;;;;;;19.91;68.31;100408.84;5071038;28;1368;-60
2021/01/05 09:52:14;;;;;;;;;;;;;;;19.93;68.70;100416.78;5072669;28;1885;-60
2021/01/05 09:54:42;;;;;;;;;;;;;;;19.90;68.30;100417.09;5071623;28;1317;-60
2021/01/05 09:57:07;;;;;;;;;;;;;;;19.89;68.82;100416.22;5071189;28;1170;-59
2021/01/05 09:59:33;;;;;;;;;;;;;;;19.89;69.12;100415.38;5073216;28;1384;-59
2021/01/05 10:02:02;;;;;;;;;;;;;;;19.89;68.68;100432.31;5070638;28;1467;-64
2021/01/05 10:04:27;;;;;;;;;;;;;;;19.85;69.38;100409.47;5071982;28;1308;-64
2021/01/05 10:06:53;;;;;;;;;;;;;;;19.79;69.57;100429.69;5072801;28;1491;-59
2021/01/05 10:09:19;;;;;;;;;;;;;;;19.79;69.59;100435.03;5073173;28;1354;-68
2021/01/05 10:11:47;;;;;;;;;;;;;;;19.78;69.31;100422.66;5072945;28;1333;-65
2021/01/05 10:14:14;;;;;;;;;;;;;;;19.75;69.60;100425.59;5073251;28;1965;-58
2021/01/05 10:16:40;;;;;;;;;;;;;;;19.74;69.20;100423.94;5073695;28;1481;-59
2021/01/05 10:19:05;;;;;;;;;;;;;;;19.73;69.90;100419.53;5055418;28;1432;-62
2021/01/05 10:21:31;;;;;;;;;;;;;;;19.66;69.36;100429.16;5073025;28;1316;-65
2021/01/05 10:23:57;;;;;;;;;;;;;;;19.63;69.71;100421.41;5073040;28;1455;-62
2021/01/05 10:26:22;;;;;;;;;;;;;;;19.63;69.12;100405.31;5072943;28;1594;-57
2021/01/05 10:28:47;;;;;;;;;;;;;;;19.67;69.19;100422.78;5073037;28;1611;-62
2021/01/05 10:31:13;;;;;;;;;;;;;;;19.68;69.68;100419.97;5055951;28;1594;-62
2021/01/05 10:33:38;;;;;;;;;;;;;;;19.64;70.90;100401.66;5076915;28;1894;-62
2021/01/05 10:36:03;;;;;;;;;;;;;;;19.56;74.01;100404.22;5059273;28;1615;-59
2021/01/05 10:38:29;;;;;;;;;;;;;;;19.53;72.13;100401.84;5077104;28;1478;-60
2021/01/05 10:40:54;;;;;;;;;;;;;;;19.55;74.55;100413.25;5076294;28;1468;-62
2021/01/05 10:43:19;;;;;;;;;;;;;;;19.59;74.88;100409.28;5076719;28;1380;-59
2021/01/05 10:45:45;;;;;;;;;;;;;;;19.53;74.60;100417.91;5076373;28;1490;-59
2021/01/05 10:48:10;;;;;;;;;;;;;;;19.45;74.05;100405.25;5076581;28;1495;-59
2021/01/05 10:50:37;;;;;;;;;;;;;;;19.48;73.60;100403.13;5075567;28;1617;-62
2021/01/05 10:53:03;;;;;;;;;;;;;;;19.41;73.66;100401.16;5065441;28;1968;-59
2021/01/05 10:55:28;;;;;;;;;;;;;;;19.41;73.17;100415.41;5065873;28;1643;-62
2021/01/05 10:57:53;;;;;;;;;;;;;;;19.41;71.83;100407.38;5076074;28;1493;-63
2021/01/05 11:00:19;;;;;;;;;;;;;;;18.88;70.15;100416.00;5076584;28;1502;-67
2021/01/05 11:02:45;;;;;;;;;;;;;;;19.16;72.80;100416.06;5076306;28;1561;-58
2021/01/05 11:05:14;;;;;;;;;;;;;;;19.20;71.82;100387.97;5075998;28;1266;-59
2021/01/05 11:07:40;;;;;;;;;;;;;;;19.30;71.70;100420.09;5076177;28;1423;-61
2021/01/05 11:10:06;;;;;;;;;;;;;;;19.24;70.69;100408.16;5076216;28;1352;-61
2021/01/05 11:12:32;;;;;;;;;;;;;;;19.15;71.31;100403.66;5058466;28;1910;-59
2021/01/05 11:14:57;;;;;;;;;;;;;;;19.12;71.16;100425.38;5073546;28;1509;-60
2021/01/05 11:17:23;;;;;;;;;;;;;;;19.11;71.17;100415.66;5075069;28;1555;-58
2021/01/05 11:19:48;;;;;;;;;;;;;;;19.10;71.26;100422.00;5075925;28;1419;-61
2021/01/05 11:22:16;;;;;;;;;;;;;;;19.08;70.98;100428.38;5075695;28;1431;-59
2021/01/05 11:24:41;;;;;;;;;;;;;;;19.07;71.14;100420.47;5076358;28;1368;-61
2021/01/05 11:27:07;;;;;;;;;;;;;;;19.03;70.98;100419.91;5075874;28;1534;-62
2021/01/05 11:29:34;;;;;;;;;;;;;;;19.02;70.79;100423.59;5076058;28;1422;-58
2021/01/05 11:32:02;;;;;;;;;;;;;;;19.04;70.61;100423.44;5075880;28;1562;-61
2021/01/05 11:34:27;;;;;;;;;;;;;;;19.10;70.44;100422.00;5075101;28;1914;-61
2021/01/05 11:36:53;;;;;;;;;;;;;;;19.12;70.23;100430.75;5075742;28;1466;-59
2021/01/05 11:39:19;;;;;;;;;;;;;;;19.15;70.22;100422.41;5075039;28;1203;-61
2021/01/05 11:41:45;;;;;;;;;;;;;;;19.18;70.09;100428.34;5076261;28;1308;-61
2021/01/05 11:44:12;;;;;;;;;;;;;;;19.19;69.52;100418.47;5073185;28;1506;-62
2021/01/05 11:46:37;;;;;;;;;;;;;;;19.30;69.25;100426.34;5075743;28;1381;-59
2021/01/05 11:49:02;;;;;;;;;;;;;;;19.33;69.15;100425.19;5074860;28;1350;-61
2021/01/05 11:51:29;;;;;;;;;;;;;;;19.25;69.46;100417.88;5075461;28;1450;-63
2021/01/05 11:53:54;;;;;;;;;;;;;;;19.26;69.42;100425.78;5075283;28;1893;-59
2021/01/05 11:56:21;;;;;;;;;;;;;;;19.30;69.62;100428.16;5074422;28;1498;-58
2021/01/05 11:58:47;;;;;;;;;;;;;;;19.25;69.36;100429.44;5074319;28;1377;-59
2021/01/05 12:01:12;;;;;;;;;;;;;;;19.24;69.65;100440.31;5075461;28;1265;-61
2021/01/05 12:03:38;;;;;;;;;;;;;;;19.28;69.94;100431.00;5073985;28;1652;-58
2021/01/05 12:06:04;;;;;;;;;;;;;;;19.26;69.56;100438.34;5073791;28;1407;-58
2021/01/05 12:08:29;;;;;;;;;;;;;;;19.27;69.85;100435.50;5073926;28;1491;-63
2021/01/05 12:10:54;;;;;;;;;;;;;;;19.28;69.84;100441.72;5074896;28;1466;-58
2021/01/05 12:13:20;;;;;;;;;;;;;;;19.41;69.88;100446.75;5075003;28;1976;-61
2021/01/05 12:15:45;;;;;;;;;;;;;;;19.44;69.97;100443.78;5075033;28;1430;-66
2021/01/05 12:18:10;;;;;;;;;;;;;;;19.42;69.77;100460.03;5056016;28;1476;-68
2021/01/05 12:20:38;;;;;;;;;;;;;;;19.41;69.96;100444.91;5070764;28;1474;-58
2021/01/05 12:23:03;;;;;;;;;;;;;;;19.41;69.57;100458.31;5073269;28;1381;-62
2021/01/05 12:25:29;;;;;;;;;;;;;;;19.42;70.04;100457.34;5074111;28;1356;-62
2021/01/05 12:27:54;;;;;;;;;;;;;;;19.42;69.99;100461.88;5052578;28;1376;-63
2021/01/05 12:30:20;;;;;;;;;;;;;;;19.37;69.78;100459.59;5059295;28;1356;-58
2021/01/05 12:32:45;;;;;;;;;;;;;;;19.40;70.34;100467.38;5074435;28;1918;-64
2021/01/05 12:35:11;;;;;;;;;;;;;;;19.37;70.20;100475.69;5073594;28;1387;-63
2021/01/05 12:37:36;;;;;;;;;;;;;;;19.44;69.83;100478.66;5073400;28;1325;-61
2021/01/05 12:40:02;;;;;;;;;;;;;;;19.43;69.98;100480.47;5073731;28;1324;-58
2021/01/05 12:42:27;;;;;;;;;;;;;;;19.36;68.42;100473.16;5072779;28;1427;-64
2021/01/05 12:44:55;;;;;;;;;;;;;;;19.34;68.06;100467.09;5073920;28;1356;-66
2021/01/05 12:47:21;;;;;;;;;;;;;;;19.37;69.11;100489.09;5073850;28;1182;-58
2021/01/05 12:49:47;;;;;;;;;;;;;;;19.34;69.07;100488.53;5072310;28;1372;-60
2021/01/05 12:52:13;;;;;;;;;;;;;;;19.38;69.30;100498.00;5073060;28;1384;-58
2021/01/05 12:54:39;;;;;;;;;;;;;;;19.26;68.56;100489.28;5072820;28;1881;-61